Barbados Meteorological Services
Auto gathered TAF list
Powered by Apparatus software
For Flight DL688
Contact Number 1-(246)-535-0021/2/3/4/5/6
WEB: http://www.barbadosweather.org

**********************************************

2017/04/24 18:39
TAF TLPL 241700Z 2418/2518 11018KT 9999 SCT026


**********************************************
2017/04/24 18:27
TAF TJSJ 241720Z 2418/2518 11011G18KT P6SM VCSH SCT025 BKN050 BKN100
TEMPO 2418/2422 VRB14G22KT 5SM SHRA BKN025
FM242230 12008KT P6SM FEW030 SCT060 BKN100
FM250530 14003KT P6SM VCSH SCT022 BKN040 OVC100
FM251450 12011KT P6SM -RA SCT025 BKN060 BKN120


**********************************************
2017/04/24 18:03
TAF TAF TFFR 241700Z 2418/2518 12016KT 9999 BKN026 PROB30 2418/2502 4000 SHRA SCT015TCU


**********************************************
2017/04/24 18:36
TAF TBPB 241700Z 2418/2518 11015KT 9999 SCT018


**********************************************
2017/04/24 18:46
TAF TAPA 241700Z 2418/2518 11012KT 9999 SCT018 BKN034 PROB40
TEMPO 2418/2512 SHRA


**********************************************
2017/04/24 18:25
TAF MYNN 241635Z 2418/2518 25008KT 9999 FEW020
BECMG 2422/2500 27015KT


**********************************************
2017/04/24 18:46
TAF MTPP 241700Z 2418/2518 13012KT 9999 FEW022 SCT050 PROB40
TEMPO 2423/2503 09010G20KT 4500 SHRA SCT022CB BKN050
BECMG 2508/2512 VRB02KT 9000 FEW020
BECMG 2514/2518 09010KT


**********************************************
2017/04/24 18:49
TAF MDSD 241600Z 2418/2518 14010KT 8000 ?RA FEW014CB BKN014 OVC070
TEMPO 2419/2501 6000 TSRA FEW012CB BKN012 OVC070


**********************************************
2017/04/24 18:39
TAF KSFB 241734Z 2418/2518 25015G23KT P6SM VCSH SCT040 BKN080
TEMPO 2418/2420 -RA BKN025
FM242000 27018G25KT P6SM FEW040 SCT080
FM250100 26011KT P6SM SCT250
FM251400 29010KT P6SM SKC


**********************************************
2017/04/24 21:27
TAF
AMD KPHL 242123Z 2421/2524 07012KT P6SM VCSH OVC060
TEMPO 2422/2424 6SM -SHRA BR SCT025 OVC050
FM250000 07010KT 6SM -SHRA BR OVC025
FM250300 06012KT P6SM -SHRA OVC015
FM250600 06012G20KT 5SM -SHRA BR OVC008
FM250900 06014G21KT 4SM -RA BR OVC007
FM251500 07014G24KT 1 1/2SM RA BR OVC003


**********************************************
2017/04/24 21:12
TAF
AMD KPBI 242107Z 2421/2518 26015G22KT P6SM SCT050 SCT070
FM250200 27012KT P6SM FEW035 FEW050 SCT070


**********************************************
2017/04/24 21:09
TAF
AMD KOPF 242107Z 2421/2518 27016G25KT P6SM SCT060 SCT070
FM250200 27013KT P6SM FEW035 FEW050 SCT070
FM251400 28011KT P6SM FEW250


**********************************************


**********************************************
2017/04/24 21:12
TAF
AMD KMIA 242107Z 2421/2518 26016G25KT P6SM SCT060 SCT070
FM250100 27010KT P6SM FEW035 FEW050 SCT070


**********************************************
2017/04/24 21:58
TAF
AMD KMCO 242058Z 2421/2518 27017G25KT P6SM SCT045 SCT070
FM250100 26010KT P6SM SCT250
FM251400 28011KT P6SM SKC


**********************************************
2017/04/24 22:54
TAF
AMD KJFK 242149Z 2422/2524 10008KT P6SM -RA SCT050 BKN070
FM250000 07010KT 6SM -RA BR SCT030 OVC060
FM250600 06011KT 4SM -RA BR SCT007 BKN015
FM250900 06014G21KT 2SM -RA BR BKN007 OVC010
FM251400 06018G28KT 1SM -RA BR OVC006


**********************************************
2017/04/24 22:03
TAF
AMD KJAX 242201Z 2422/2518 28012KT P6SM FEW040 BKN060
FM250100 28008KT P6SM FEW060 SCT250
FM251000 28010KT 6SM FU FEW010 FEW250


**********************************************
2017/04/24 21:12
TAF
AMD KFLL 242107Z 2421/2518 26016G25KT P6SM SCT050 SCT090
FM250200 27011KT P6SM FEW035 FEW050 SCT070


**********************************************
2017/04/24 22:54
TAF
AMD KEWR 242149Z 2422/2524 13005KT P6SM -RA SCT060 BKN070
FM250000 10005KT P6SM -RA SCT030 BKN060
FM250200 07008KT 6SM -RA BR SCT015 OVC060
FM250600 05011KT 4SM -RA BR SCT007 BKN015
FM250900 04013G20KT 2SM -RA BR BKN007 OVC010
FM251500 06015G25KT 1SM -RA BR OVC006


**********************************************
2017/04/24 21:54
TAF
AMD KCLT 242049Z 2421/2518 02010KT P6SM -SHRA OVC007
FM242300 02010KT 5SM -SHRA BR OVC006
FM250600 02010KT P6SM -SHRA OVC005
FM251400 01010KT P6SM OVC008 PROB30 2514/2518 6SM -SHRA


**********************************************
2017/04/24 22:48
TAF
AMD KATL 242142Z 2422/2524 30007KT P6SM VCSH FEW025 BKN035
TEMPO 2422/2424 BKN025
FM250300 32005KT P6SM BKN025
FM250600 31004KT P6SM BKN012
FM250900 32005KT P6SM BKN009
FM251400 33004KT P6SM SCT009 BKN012
FM251600 31008KT P6SM FEW035


**********************************************